Alpine, Tennessee
Current Conditions -  °F | °C
As of 1:15 PM on Thursday 18 Dec 2014 (Local Time) from KSRB Reporting Station
Overcast Overcast  
Wind Chill: 32°   Ceiling: 3600
Heat Index: 37°   Visibility: 10mi
Dew Point: 34°   Wind: 7mph
Humidity: 87%   Direction: NA
Pressure: 30.17"   Gusts: NA
Location:  36.39°N, 85.22°W
Report Text: KSRB 181915Z AUTO VRB06KT 10SM SCT011 OVC036 03/01 A3017 RMK
Loading
Personal Weather Stations






























Interactive Weather Map New forecast layout! Learn more

10-Day Weather Forecast

Advertisements
Track Severe Weather on mobile